createdAt,value
2022-07-29T00:02:25.832Z,61.60
2022-07-29T00:04:52.489Z,61.39
2022-07-29T00:07:19.326Z,62.14
2022-07-29T00:09:52.095Z,62.31
2022-07-29T00:12:26.223Z,61.21
2022-07-29T00:14:55.441Z,62.04
2022-07-29T00:17:22.090Z,62.57
2022-07-29T00:19:48.597Z,62.82
2022-07-29T00:22:15.225Z,62.46
2022-07-29T00:24:42.240Z,63.07
2022-07-29T00:27:08.816Z,62.69
2022-07-29T00:29:35.641Z,63.42
2022-07-29T00:32:03.385Z,63.59
2022-07-29T00:34:48.639Z,63.45
2022-07-29T00:37:15.138Z,63.83
2022-07-29T00:39:42.443Z,63.87
2022-07-29T00:42:09.212Z,63.56
2022-07-29T00:44:39.982Z,64.08
2022-07-29T00:47:07.123Z,63.44
2022-07-29T00:49:35.013Z,63.84
2022-07-29T00:52:06.015Z,64.14
2022-07-29T00:54:34.099Z,64.46
2022-07-29T00:57:01.043Z,64.03
2022-07-29T00:59:35.224Z,63.88
2022-07-29T01:02:03.466Z,63.83
2022-07-29T01:04:30.876Z,64.44
2022-07-29T01:06:59.736Z,65.30
2022-07-29T01:09:43.158Z,64.57
2022-07-29T01:12:34.480Z,64.53
2022-07-29T01:15:03.173Z,65.18
2022-07-29T01:18:00.135Z,64.31
2022-07-29T01:20:47.863Z,65.74
2022-07-29T01:23:23.644Z,65.49
2022-07-29T01:25:53.109Z,66.36
2022-07-29T01:28:45.825Z,65.59
2022-07-29T01:31:24.950Z,65.83
2022-07-29T01:33:59.754Z,66.17
2022-07-29T01:36:49.720Z,66.79
2022-07-29T01:39:33.889Z,66.98
2022-07-29T01:42:14.245Z,66.60
2022-07-29T01:44:51.892Z,66.88
2022-07-29T01:47:23.444Z,67.17
2022-07-29T01:49:53.877Z,67.34
2022-07-29T01:52:26.049Z,67.72
2022-07-29T01:55:01.699Z,67.25
2022-07-29T01:57:31.841Z,66.94
2022-07-29T02:00:01.255Z,66.86
2022-07-29T02:02:31.141Z,66.88
2022-07-29T02:04:59.385Z,66.19
2022-07-29T02:07:30.368Z,67.49
2022-07-29T02:09:59.010Z,67.04
2022-07-29T02:12:29.453Z,66.96
2022-07-29T02:14:58.693Z,67.07
2022-07-29T02:17:30.176Z,67.11
2022-07-29T02:20:00.213Z,67.79
2022-07-29T02:22:30.521Z,67.62
2022-07-29T02:24:59.264Z,68.65
2022-07-29T02:27:29.488Z,69.00
2022-07-29T02:29:59.567Z,68.10
2022-07-29T02:32:28.317Z,69.00
2022-07-29T02:34:56.668Z,68.64
2022-07-29T02:37:25.353Z,69.07
2022-07-29T02:39:54.794Z,68.89
2022-07-29T02:42:23.709Z,69.17
2022-07-29T02:44:51.171Z,69.74
2022-07-29T02:47:20.283Z,69.84
2022-07-29T02:49:53.688Z,70.41
2022-07-29T02:52:28.508Z,70.26
2022-07-29T02:54:59.597Z,70.61
2022-07-29T02:57:53.848Z,70.55
2022-07-29T03:00:24.649Z,70.87
2022-07-29T03:02:55.641Z,70.88
2022-07-29T03:05:23.554Z,70.62
2022-07-29T03:08:05.451Z,70.84
2022-07-29T03:10:32.732Z,70.82
2022-07-29T03:13:00.456Z,71.19
2022-07-29T03:15:27.960Z,71.15
2022-07-29T03:17:55.060Z,70.74
2022-07-29T03:20:22.084Z,70.79
2022-07-29T03:22:48.758Z,70.99
2022-07-29T03:25:17.108Z,70.97
2022-07-29T03:27:46.388Z,70.22
2022-07-29T03:30:18.389Z,70.85
2022-07-29T03:32:49.941Z,70.17
2022-07-29T03:35:20.264Z,69.97
2022-07-29T03:37:47.033Z,70.21
2022-07-29T03:40:20.868Z,70.12
2022-07-29T03:42:49.472Z,70.53
2022-07-29T03:45:19.663Z,70.09
2022-07-29T03:47:50.822Z,69.37
2022-07-29T03:50:20.468Z,69.21
2022-07-29T03:52:47.704Z,68.86
2022-07-29T03:55:15.059Z,68.87
2022-07-29T03:57:42.576Z,69.12
2022-07-29T04:00:09.946Z,68.39
2022-07-29T04:02:37.724Z,68.25
2022-07-29T04:05:04.588Z,68.44
2022-07-29T04:07:31.180Z,67.89
2022-07-29T04:09:57.726Z,67.91
2022-07-29T04:12:24.267Z,67.92
2022-07-29T04:14:51.229Z,67.24
2022-07-29T04:17:17.942Z,67.85
2022-07-29T04:19:44.405Z,67.55
2022-07-29T04:22:10.913Z,67.84
2022-07-29T04:24:37.398Z,68.04
2022-07-29T04:27:03.946Z,67.99
2022-07-29T04:29:30.489Z,67.21
2022-07-29T04:31:57.004Z,66.96
2022-07-29T04:34:23.600Z,66.84
2022-07-29T04:36:54.846Z,66.30
2022-07-29T04:39:23.211Z,67.08
2022-07-29T04:41:51.222Z,65.87
2022-07-29T04:44:19.773Z,66.15
2022-07-29T04:46:46.718Z,66.03
2022-07-29T04:49:14.206Z,65.89
2022-07-29T04:51:41.042Z,65.94
2022-07-29T04:54:07.558Z,65.87
2022-07-29T04:56:34.101Z,65.71
2022-07-29T04:59:00.615Z,65.36
2022-07-29T05:01:27.273Z,64.84
2022-07-29T05:03:58.338Z,65.18
2022-07-29T05:06:26.935Z,65.36
2022-07-29T05:08:53.533Z,65.73
2022-07-29T05:11:22.370Z,65.59
2022-07-29T05:13:50.607Z,65.83
2022-07-29T05:16:17.144Z,64.33
2022-07-29T05:18:43.746Z,64.50
2022-07-29T05:21:10.412Z,63.74
2022-07-29T05:23:36.931Z,63.64
2022-07-29T05:26:03.576Z,63.57
2022-07-29T05:28:30.131Z,64.06
2022-07-29T05:30:57.319Z,63.85
2022-07-29T05:33:35.670Z,63.15
2022-07-29T05:36:06.460Z,63.49
2022-07-29T05:38:33.330Z,63.19
2022-07-29T05:41:00.627Z,63.29
2022-07-29T05:43:28.844Z,63.37
2022-07-29T05:45:55.651Z,63.51
2022-07-29T05:48:22.263Z,64.24
2022-07-29T05:50:48.774Z,63.07
2022-07-29T05:53:18.841Z,61.89
2022-07-29T05:55:46.848Z,62.24
2022-07-29T05:58:13.479Z,61.61
2022-07-29T06:00:39.953Z,61.56
2022-07-29T06:03:06.514Z,60.06
2022-07-29T06:05:33.067Z,60.63
2022-07-29T06:07:59.593Z,60.94
2022-07-29T06:10:26.214Z,60.24
2022-07-29T06:12:54.010Z,61.75
2022-07-29T06:15:20.666Z,61.00
2022-07-29T06:18:00.292Z,61.40
2022-07-29T06:20:32.440Z,61.27
2022-07-29T06:23:00.212Z,60.37
2022-07-29T06:25:30.227Z,59.74
2022-07-29T06:27:57.518Z,59.24
2022-07-29T06:30:24.156Z,59.98
2022-07-29T06:32:50.827Z,59.31
2022-07-29T06:35:38.249Z,58.80
2022-07-29T06:38:08.414Z,59.34
2022-07-29T06:41:07.162Z,57.89
2022-07-29T06:43:52.572Z,57.49
2022-07-29T06:46:22.349Z,57.59
2022-07-29T06:48:49.810Z,56.78
2022-07-29T06:51:22.918Z,56.10
2022-07-29T06:53:58.383Z,56.53
2022-07-29T06:56:29.801Z,54.60
2022-07-29T06:58:56.327Z,55.09
2022-07-29T07:01:22.891Z,55.23
2022-07-29T07:03:49.565Z,54.45
2022-07-29T07:06:16.199Z,54.62
2022-07-29T07:08:42.806Z,54.82
2022-07-29T07:11:09.803Z,53.78
2022-07-29T07:13:36.798Z,54.18
2022-07-29T07:16:03.985Z,53.09
2022-07-29T07:18:30.572Z,53.74
2022-07-29T07:20:59.307Z,53.12
2022-07-29T07:23:25.969Z,53.84
2022-07-29T07:25:52.628Z,52.45
2022-07-29T07:28:19.599Z,53.31
2022-07-29T07:30:51.761Z,53.51
2022-07-29T07:33:18.356Z,52.16
2022-07-29T07:35:45.284Z,51.32
2022-07-29T07:38:11.885Z,51.01
2022-07-29T07:40:38.448Z,51.01
2022-07-29T07:43:05.089Z,51.18
2022-07-29T07:45:33.958Z,49.93
2022-07-29T07:48:01.028Z,50.04
2022-07-29T07:50:27.720Z,48.70
2022-07-29T07:52:58.530Z,50.51
2022-07-29T07:55:25.719Z,49.41
2022-07-29T07:57:52.218Z,49.54
2022-07-29T08:00:18.747Z,46.89
2022-07-29T08:02:46.155Z,46.84
2022-07-29T08:05:17.589Z,45.99
2022-07-29T08:07:46.416Z,48.05
2022-07-29T08:10:14.251Z,47.06
2022-07-29T08:12:42.599Z,45.62
2022-07-29T08:15:09.800Z,46.35
2022-07-29T08:17:36.311Z,44.53
2022-07-29T08:20:04.223Z,45.52
2022-07-29T08:22:30.709Z,45.50
2022-07-29T08:24:57.441Z,44.70
2022-07-29T08:27:43.055Z,44.82
2022-07-29T08:30:11.316Z,45.54
2022-07-29T08:32:53.019Z,46.51
2022-07-29T08:35:21.647Z,47.12
2022-07-29T08:37:49.068Z,47.74
2022-07-29T08:40:15.708Z,45.42
2022-07-29T08:42:42.814Z,45.67
2022-07-29T08:45:09.851Z,43.80
2022-07-29T08:47:40.782Z,43.01
2022-07-29T08:50:11.471Z,44.52
2022-07-29T08:52:40.910Z,42.85
2022-07-29T08:55:09.148Z,43.22
2022-07-29T08:57:35.955Z,43.51
2022-07-29T09:00:11.903Z,44.51
2022-07-29T09:02:46.639Z,42.70
2022-07-29T09:05:13.726Z,42.09
2022-07-29T09:07:40.935Z,41.61
2022-07-29T09:10:07.974Z,41.81
2022-07-29T09:12:37.980Z,40.50
2022-07-29T09:15:05.140Z,40.52
2022-07-29T09:17:48.663Z,42.51
2022-07-29T09:20:20.739Z,40.25
2022-07-29T09:22:50.687Z,40.79
2022-07-29T09:25:34.056Z,40.10
2022-07-29T09:28:11.648Z,41.42
2022-07-29T09:30:57.723Z,40.26
2022-07-29T09:33:25.326Z,40.97
2022-07-29T09:36:10.848Z,40.21
2022-07-29T09:38:38.345Z,40.11
2022-07-29T09:41:06.891Z,42.36
2022-07-29T09:43:34.695Z,41.82
2022-07-29T09:46:12.971Z,41.09
2022-07-29T09:48:39.787Z,39.71
2022-07-29T09:51:07.481Z,39.26
2022-07-29T09:53:36.383Z,38.90
2022-07-29T09:56:04.055Z,37.14
2022-07-29T09:58:30.737Z,37.81
2022-07-29T10:00:58.722Z,38.63
2022-07-29T10:03:25.487Z,36.39
2022-07-29T10:06:09.748Z,38.75
2022-07-29T10:08:36.778Z,37.65
2022-07-29T10:11:20.082Z,36.62
2022-07-29T10:13:48.930Z,36.20
2022-07-29T10:16:17.090Z,36.66
2022-07-29T10:18:44.907Z,36.51
2022-07-29T10:21:22.601Z,36.34
2022-07-29T10:24:02.132Z,35.77
2022-07-29T10:26:30.601Z,36.48
2022-07-29T10:28:57.231Z,36.01
2022-07-29T10:31:40.015Z,36.76
2022-07-29T10:34:24.043Z,36.93
2022-07-29T10:37:23.825Z,36.93
2022-07-29T10:40:43.844Z,36.09
2022-07-29T10:43:39.161Z,36.11
2022-07-29T10:46:12.649Z,36.09
2022-07-29T10:49:15.407Z,37.16
2022-07-29T10:51:51.447Z,37.06
2022-07-29T10:54:47.981Z,37.06
2022-07-29T10:57:53.653Z,37.19
2022-07-29T11:00:16.990Z,36.18
2022-07-29T11:02:45.796Z,36.67
2022-07-29T11:05:20.786Z,36.67
2022-07-29T11:08:19.993Z,36.84
2022-07-29T11:10:49.282Z,36.89
2022-07-29T11:14:11.560Z,36.68
2022-07-29T11:17:20.457Z,36.71
2022-07-29T11:19:52.283Z,36.64
2022-07-29T11:23:00.477Z,36.08
2022-07-29T11:25:42.946Z,36.04
2022-07-29T11:28:22.773Z,35.26
2022-07-29T11:30:54.356Z,37.39
2022-07-29T11:33:54.501Z,36.85
2022-07-29T11:36:18.347Z,36.35
2022-07-29T11:38:44.880Z,36.26
2022-07-29T11:41:30.224Z,36.56
2022-07-29T11:44:18.360Z,35.65
2022-07-29T11:46:48.485Z,37.01
2022-07-29T11:52:10.980Z,35.72
2022-07-29T11:54:58.203Z,35.68
2022-07-29T11:57:36.655Z,36.29
2022-07-29T12:00:12.469Z,37.22
2022-07-29T12:02:43.392Z,37.16
2022-07-29T12:05:24.051Z,37.89
2022-07-29T12:07:03.188Z,35.92
2022-07-29T12:08:14.914Z,36.53
2022-07-29T12:10:43.564Z,34.06
2022-07-29T12:13:14.719Z,34.66
2022-07-29T12:15:47.384Z,33.85
2022-07-29T12:19:07.876Z,34.19
2022-07-29T12:21:56.657Z,32.76
2022-07-29T12:24:26.951Z,33.05
2022-07-29T12:27:01.023Z,31.79
2022-07-29T12:29:34.577Z,32.74
2022-07-29T12:32:04.472Z,33.99
2022-07-29T12:34:32.041Z,33.21
2022-07-29T12:36:58.823Z,32.87
2022-07-29T12:39:34.676Z,32.15
2022-07-29T12:42:04.380Z,33.94
2022-07-29T12:44:56.646Z,32.13
2022-07-29T12:47:23.710Z,32.73
2022-07-29T12:49:51.631Z,31.45
2022-07-29T12:52:37.291Z,31.93
2022-07-29T12:55:04.661Z,33.07
2022-07-29T12:57:32.657Z,33.48
2022-07-29T13:00:12.325Z,33.82
2022-07-29T13:02:40.950Z,34.17
2022-07-29T13:05:09.381Z,33.13
2022-07-29T13:07:54.062Z,31.20
2022-07-29T13:10:24.418Z,32.96
2022-07-29T13:13:05.928Z,30.85
2022-07-29T13:15:34.101Z,30.89
2022-07-29T13:18:01.102Z,30.88
2022-07-29T13:20:38.420Z,31.31
2022-07-29T13:23:04.938Z,32.39
2022-07-29T13:25:33.003Z,32.07
2022-07-29T13:28:00.589Z,31.61
2022-07-29T13:30:27.210Z,32.71
2022-07-29T13:32:54.312Z,32.33
2022-07-29T13:35:21.276Z,32.03
2022-07-29T13:37:47.949Z,33.11
2022-07-29T13:40:15.105Z,32.34
2022-07-29T13:43:01.657Z,31.97
2022-07-29T13:45:29.074Z,32.42
2022-07-29T13:47:56.081Z,31.31
2022-07-29T13:50:22.632Z,31.96
2022-07-29T13:52:49.604Z,30.57
2022-07-29T13:55:16.115Z,32.51
2022-07-29T13:57:42.693Z,31.28
2022-07-29T14:00:13.298Z,30.93
2022-07-29T14:02:39.976Z,32.12
2022-07-29T14:05:08.647Z,31.67
2022-07-29T14:07:37.884Z,31.06
2022-07-29T14:10:09.454Z,31.17
2022-07-29T14:12:36.143Z,30.77
2022-07-29T14:15:02.742Z,30.94
2022-07-29T14:17:29.370Z,30.44
2022-07-29T14:19:57.446Z,30.76
2022-07-29T14:22:27.035Z,31.53
2022-07-29T14:24:53.619Z,29.89
2022-07-29T14:27:20.270Z,31.36
2022-07-29T14:30:05.103Z,32.14
2022-07-29T14:32:31.655Z,31.39
2022-07-29T14:34:58.373Z,30.87
2022-07-29T14:37:24.965Z,30.73
2022-07-29T14:39:51.479Z,31.22
2022-07-29T14:42:18.325Z,30.57
2022-07-29T14:44:44.828Z,30.05
2022-07-29T14:47:13.527Z,29.59
2022-07-29T14:49:40.089Z,29.88
2022-07-29T14:52:06.932Z,30.39
2022-07-29T14:54:33.602Z,27.76
2022-07-29T14:57:00.438Z,27.26
2022-07-29T14:59:27.355Z,27.39
2022-07-29T15:01:54.147Z,25.71
2022-07-29T15:04:21.813Z,25.41
2022-07-29T15:06:48.927Z,25.15
2022-07-29T15:09:15.534Z,25.78
2022-07-29T15:11:42.139Z,27.49
2022-07-29T15:14:09.304Z,27.92
2022-07-29T15:16:43.838Z,29.30
2022-07-29T15:19:13.306Z,27.34
2022-07-29T15:21:47.895Z,26.25
2022-07-29T15:24:19.716Z,25.89
2022-07-29T15:26:47.208Z,24.71
2022-07-29T15:29:14.692Z,25.01
2022-07-29T15:31:41.547Z,24.84
2022-07-29T15:34:08.133Z,26.02
2022-07-29T15:36:51.337Z,26.55
2022-07-29T15:39:19.332Z,26.29
2022-07-29T15:41:45.876Z,26.93
2022-07-29T15:44:12.506Z,28.50
2022-07-29T15:46:57.782Z,27.81
2022-07-29T15:49:31.406Z,28.01
2022-07-29T15:52:18.331Z,27.25
2022-07-29T15:54:45.833Z,27.19
2022-07-29T15:57:12.908Z,27.06
2022-07-29T15:59:39.465Z,28.36
2022-07-29T16:02:06.133Z,27.85
2022-07-29T16:04:33.179Z,28.79
2022-07-29T16:07:00.063Z,29.60
2022-07-29T16:09:26.931Z,30.54
2022-07-29T16:11:54.094Z,29.76
2022-07-29T16:14:21.032Z,29.54
2022-07-29T16:16:47.858Z,30.36
2022-07-29T16:19:15.082Z,30.61
2022-07-29T16:21:41.791Z,31.09
2022-07-29T16:24:08.645Z,31.96
2022-07-29T16:26:35.641Z,32.92
2022-07-29T16:29:02.190Z,32.35
2022-07-29T16:31:29.089Z,33.19
2022-07-29T16:33:56.119Z,33.06
2022-07-29T16:36:23.368Z,33.04
2022-07-29T16:38:50.143Z,32.34
2022-07-29T16:41:17.056Z,32.51
2022-07-29T16:43:49.789Z,32.74
2022-07-29T16:46:18.785Z,32.53
2022-07-29T16:48:45.792Z,33.02
2022-07-29T16:51:14.315Z,33.82
2022-07-29T16:53:41.535Z,34.64
2022-07-29T16:56:11.192Z,33.83
2022-07-29T16:58:43.628Z,33.78
2022-07-29T17:01:16.139Z,33.83
2022-07-29T17:04:01.930Z,33.43
2022-07-29T17:06:29.413Z,34.45
2022-07-29T17:08:57.055Z,33.78
2022-07-29T17:11:51.660Z,34.42
2022-07-29T17:14:10.613Z,34.64
2022-07-29T17:16:37.408Z,34.29
2022-07-29T17:19:04.897Z,33.34
2022-07-29T17:21:31.719Z,34.95
2022-07-29T17:23:59.396Z,34.67
2022-07-29T17:26:28.287Z,34.78
2022-07-29T17:28:56.049Z,36.12
2022-07-29T17:31:23.559Z,35.58
2022-07-29T17:33:50.228Z,35.46
2022-07-29T17:36:26.884Z,34.76
2022-07-29T17:38:56.157Z,35.11
2022-07-29T17:41:23.818Z,34.79
2022-07-29T17:43:51.515Z,35.32
2022-07-29T17:46:20.160Z,35.78
2022-07-29T17:48:46.994Z,35.87
2022-07-29T17:51:19.370Z,35.61
2022-07-29T17:53:45.964Z,35.59
2022-07-29T17:56:12.851Z,36.13
2022-07-29T17:58:39.933Z,36.36
2022-07-29T18:01:06.722Z,36.54
2022-07-29T18:03:33.332Z,36.29
2022-07-29T18:06:00.681Z,37.06
2022-07-29T18:08:27.853Z,36.74
2022-07-29T18:11:01.192Z,37.26
2022-07-29T18:13:27.799Z,37.00
2022-07-29T18:15:59.992Z,37.15
2022-07-29T18:18:27.019Z,37.04
2022-07-29T18:20:53.697Z,37.15
2022-07-29T18:23:20.173Z,37.30
2022-07-29T18:25:46.715Z,37.69
2022-07-29T18:28:13.655Z,37.61
2022-07-29T18:30:40.248Z,37.54
2022-07-29T18:33:21.782Z,36.92
2022-07-29T18:35:51.732Z,38.31
2022-07-29T18:38:18.860Z,37.29
2022-07-29T18:40:46.253Z,37.18
2022-07-29T18:43:13.559Z,37.91
2022-07-29T18:45:42.556Z,38.73
2022-07-29T18:48:12.831Z,38.64
2022-07-29T18:50:40.495Z,37.74
2022-07-29T18:53:07.319Z,38.54
2022-07-29T18:55:33.904Z,37.39
2022-07-29T18:58:00.659Z,37.49
2022-07-29T19:00:28.039Z,38.55
2022-07-29T19:02:55.585Z,38.09
2022-07-29T19:05:23.311Z,38.46
2022-07-29T19:07:50.316Z,38.89
2022-07-29T19:10:18.590Z,38.51
2022-07-29T19:12:45.421Z,38.46
2022-07-29T19:15:12.157Z,39.01
2022-07-29T19:17:46.968Z,39.01
2022-07-29T19:20:14.290Z,39.56
2022-07-29T19:22:40.952Z,39.86
2022-07-29T19:25:08.069Z,38.30
2022-07-29T19:27:34.607Z,39.46
2022-07-29T19:30:03.345Z,40.22
2022-07-29T19:32:29.934Z,40.65
2022-07-29T19:35:14.865Z,39.56
2022-07-29T19:37:41.327Z,39.99
2022-07-29T19:40:21.720Z,40.85
2022-07-29T19:42:51.099Z,40.30
2022-07-29T19:45:38.844Z,40.71
2022-07-29T19:48:05.894Z,40.48
2022-07-29T19:50:43.571Z,41.41
2022-07-29T19:53:10.809Z,40.87
2022-07-29T19:55:40.326Z,41.09
2022-07-29T19:58:07.389Z,40.58
2022-07-29T20:00:35.252Z,40.68
2022-07-29T20:03:15.925Z,41.17
2022-07-29T20:05:43.385Z,41.07
2022-07-29T20:08:14.716Z,40.76
2022-07-29T20:10:41.306Z,41.59
2022-07-29T20:13:07.860Z,41.11
2022-07-29T20:15:34.742Z,41.49
2022-07-29T20:18:01.337Z,41.92
2022-07-29T20:20:36.739Z,41.92
2022-07-29T20:23:17.423Z,42.21
2022-07-29T20:25:46.066Z,42.67
2022-07-29T20:28:37.885Z,42.96
2022-07-29T20:31:04.561Z,42.56
2022-07-29T20:36:26.724Z,43.48
2022-07-29T20:38:53.394Z,43.08
2022-07-29T20:41:29.224Z,44.10
2022-07-29T20:43:56.186Z,43.44
2022-07-29T20:46:22.829Z,42.84
2022-07-29T20:49:11.366Z,43.61
2022-07-29T20:51:43.617Z,44.22
2022-07-29T20:54:10.907Z,44.21
2022-07-29T20:56:37.538Z,43.58
2022-07-29T20:59:04.438Z,43.17
2022-07-29T21:01:42.606Z,43.65
2022-07-29T21:04:11.280Z,43.22
2022-07-29T21:06:37.821Z,44.51
2022-07-29T21:09:04.451Z,44.26
2022-07-29T21:11:43.431Z,44.57
2022-07-29T21:14:29.575Z,45.10
2022-07-29T21:16:56.940Z,44.80
2022-07-29T21:19:23.585Z,44.78
2022-07-29T21:21:51.197Z,45.35
2022-07-29T21:24:18.827Z,45.79
2022-07-29T21:26:54.461Z,45.46
2022-07-29T21:29:30.119Z,45.76
2022-07-29T21:32:02.023Z,45.94
2022-07-29T21:34:28.866Z,45.91
2022-07-29T21:37:16.026Z,46.14
2022-07-29T21:39:42.584Z,46.85
2022-07-29T21:42:09.114Z,47.12
2022-07-29T21:44:52.969Z,46.66
2022-07-29T21:47:23.342Z,47.24
2022-07-29T21:49:53.570Z,47.13
2022-07-29T21:55:12.488Z,47.32
2022-07-29T21:57:39.016Z,47.76
2022-07-29T22:03:21.546Z,47.86
2022-07-29T22:05:54.386Z,48.39
2022-07-29T22:08:39.758Z,47.61
2022-07-29T22:14:02.741Z,47.92
2022-07-29T22:19:27.585Z,47.13
2022-07-29T22:21:55.673Z,47.70
2022-07-29T22:24:22.252Z,46.98
2022-07-29T22:26:48.860Z,47.82
2022-07-29T22:29:17.688Z,48.13
2022-07-29T22:31:44.988Z,48.28
2022-07-29T22:34:13.410Z,48.98
2022-07-29T22:36:45.172Z,48.95
2022-07-29T22:39:11.876Z,48.77
2022-07-29T22:41:42.219Z,48.92
2022-07-29T22:44:08.815Z,49.47
2022-07-29T22:46:35.576Z,49.34
2022-07-29T22:49:02.191Z,49.27
2022-07-29T22:54:17.550Z,48.56
2022-07-29T22:56:44.140Z,48.93
2022-07-29T22:59:10.814Z,49.74
2022-07-29T23:01:38.177Z,49.81
2022-07-29T23:04:05.691Z,49.23
2022-07-29T23:06:33.423Z,49.56
2022-07-29T23:09:09.105Z,50.44
2022-07-29T23:11:36.028Z,50.29
2022-07-29T23:14:02.723Z,50.89
2022-07-29T23:16:29.410Z,50.61
2022-07-29T23:18:56.026Z,50.12
2022-07-29T23:21:27.993Z,50.32
2022-07-29T23:23:56.139Z,50.41
2022-07-29T23:26:22.758Z,50.24
2022-07-29T23:28:55.362Z,50.34
2022-07-29T23:31:29.344Z,50.46
2022-07-29T23:34:01.829Z,51.04
2022-07-29T23:36:37.508Z,50.65
2022-07-29T23:39:04.292Z,49.86
2022-07-29T23:41:31.670Z,50.90
2022-07-29T23:44:01.037Z,51.01
2022-07-29T23:46:27.755Z,51.17
2022-07-29T23:48:54.785Z,50.24
2022-07-29T23:51:27.079Z,50.66
2022-07-29T23:53:54.417Z,51.17
2022-07-29T23:56:31.529Z,51.87
